Time;durP1;ratioP1;P1;durP2;ratioP2;P2;SDS_P1;SDS_P2;PMS_P1;PMS_P2;Temp;Humidity;BMP_temperature;BMP_pressure;BME280_temperature;BME280_humidity;BME280_pressure;Samples;Min_cycle;Max_cycle;Signal;HPM_P1;HPM_P2
2021/07/31 00:01:13;;;;;;;;;;;17.00;99.90;;;;;;5027531;28;19935;-72
2021/07/31 00:03:39;;;;;;;;;;;16.90;99.90;;;;;;5028780;28;20327;-70
2021/07/31 00:06:07;;;;;;;;;;;16.90;99.90;;;;;;5026524;28;19912;-72
2021/07/31 00:08:33;;;;;;;;;;;16.90;99.90;;;;;;5051388;28;20007;-72
2021/07/31 00:10:59;;;;;;;;;;;16.90;99.90;;;;;;5029706;28;19913;-72
2021/07/31 00:13:25;;;;;;;;;;;16.90;99.90;;;;;;5028044;28;19959;-74
2021/07/31 00:15:51;;;;;;;;;;;16.90;99.90;;;;;;5049039;28;19920;-72
2021/07/31 00:18:17;;;;;;;;;;;17.00;99.90;;;;;;5032602;28;20296;-72
2021/07/31 00:20:43;;;;;;;;;;;17.00;99.90;;;;;;5029009;28;19920;-73
2021/07/31 00:23:08;;;;;;;;;;;17.00;99.90;;;;;;5045743;28;19920;-72
2021/07/31 00:25:34;;;;;;;;;;;17.00;99.90;;;;;;5041690;28;19999;-71
2021/07/31 00:28:00;;;;;;;;;;;17.00;99.90;;;;;;5030393;28;20029;-72
2021/07/31 00:30:26;;;;;;;;;;;17.00;99.90;;;;;;5032052;28;20017;-72
2021/07/31 00:32:53;;;;;;;;;;;17.00;99.90;;;;;;5048740;28;19944;-73
2021/07/31 00:35:19;;;;;;;;;;;17.00;99.90;;;;;;5023428;28;19921;-72
2021/07/31 00:37:44;;;;;;;;;;;16.90;99.90;;;;;;5024696;28;19939;-71
2021/07/31 00:40:10;;;;;;;;;;;16.90;99.90;;;;;;5029513;28;19927;-72
2021/07/31 00:42:39;;;;;;;;;;;16.90;99.90;;;;;;5042353;28;19917;-73
2021/07/31 00:45:05;;;;;;;;;;;16.90;99.90;;;;;;5051822;28;19920;-72
2021/07/31 00:47:31;;;;;;;;;;;16.90;99.90;;;;;;5045165;28;20399;-73
2021/07/31 00:49:57;;;;;;;;;;;16.80;99.90;;;;;;5028415;28;19955;-72
2021/07/31 00:52:24;;;;;;;;;;;16.90;99.90;;;;;;5045337;28;20385;-72
2021/07/31 00:54:51;;;;;;;;;;;16.90;99.90;;;;;;5049472;28;19912;-72
2021/07/31 00:57:19;;;;;;;;;;;16.80;99.90;;;;;;5045907;28;19920;-72
2021/07/31 00:59:45;;;;;;;;;;;16.80;99.90;;;;;;5016546;28;20292;-74
2021/07/31 01:02:10;;;;;;;;;;;16.80;99.90;;;;;;5044017;28;19917;-73
2021/07/31 01:04:36;;;;;;;;;;;16.70;99.90;;;;;;5041519;28;20329;-73
2021/07/31 01:07:03;;;;;;;;;;;16.70;99.90;;;;;;5028077;28;19913;-73
2021/07/31 01:09:30;;;;;;;;;;;16.80;99.90;;;;;;5051629;28;19913;-72
2021/07/31 01:11:55;;;;;;;;;;;16.80;99.90;;;;;;5048681;28;19989;-72
2021/07/31 01:14:21;;;;;;;;;;;16.80;99.90;;;;;;5026030;28;19966;-73
2021/07/31 01:16:47;;;;;;;;;;;16.80;99.90;;;;;;5043833;28;19976;-72
2021/07/31 01:19:12;;;;;;;;;;;16.80;99.90;;;;;;5043661;28;20387;-72
2021/07/31 01:21:41;;;;;;;;;;;16.90;99.90;;;;;;5040829;28;20362;-73
2021/07/31 01:24:08;;;;;;;;;;;16.90;99.90;;;;;;5034065;28;20264;-72
2021/07/31 01:26:38;;;;;;;;;;;16.90;99.90;;;;;;5046272;28;20067;-72
2021/07/31 01:29:04;;;;;;;;;;;16.70;99.90;;;;;;5046882;28;20003;-72
2021/07/31 01:31:30;;;;;;;;;;;16.60;99.90;;;;;;5037236;28;19912;-72
2021/07/31 01:33:55;;;;;;;;;;;16.50;99.90;;;;;;5027802;28;20388;-72
2021/07/31 01:36:21;;;;;;;;;;;16.40;99.90;;;;;;5027964;28;20327;-75
2021/07/31 01:38:46;;;;;;;;;;;16.30;99.90;;;;;;5043582;28;19936;-75
2021/07/31 01:41:12;;;;;;;;;;;16.30;99.90;;;;;;5041953;28;19920;-73
2021/07/31 01:43:38;;;;;;;;;;;16.30;99.90;;;;;;5046243;28;19913;-73
2021/07/31 01:46:03;;;;;;;;;;;16.20;99.90;;;;;;5021956;28;19920;-73
2021/07/31 01:48:29;;;;;;;;;;;16.20;99.90;;;;;;5024014;28;19913;-73
2021/07/31 01:50:54;;;;;;;;;;;16.20;99.90;;;;;;5033398;28;20001;-73
2021/07/31 01:53:20;;;;;;;;;;;16.20;99.90;;;;;;5024504;28;20395;-72
2021/07/31 01:55:45;;;;;;;;;;;16.20;99.90;;;;;;5031934;28;19913;-73
2021/07/31 01:58:11;;;;;;;;;;;16.10;99.90;;;;;;5027051;28;19940;-73
2021/07/31 02:00:36;;;;;;;;;;;16.20;99.90;;;;;;5046815;28;19967;-73
2021/07/31 02:03:02;;;;;;;;;;;16.10;99.90;;;;;;5042261;28;20381;-73
2021/07/31 02:05:27;;;;;;;;;;;16.20;99.90;;;;;;5049046;28;19920;-73
2021/07/31 02:07:53;;;;;;;;;;;16.10;99.90;;;;;;5034942;28;19913;-73
2021/07/31 02:10:18;;;;;;;;;;;16.10;99.90;;;;;;5038083;28;20003;-74
2021/07/31 02:12:44;;;;;;;;;;;16.00;99.90;;;;;;5047252;28;19921;-74
2021/07/31 02:15:09;;;;;;;;;;;15.90;99.90;;;;;;5049332;28;19925;-73
2021/07/31 02:17:35;;;;;;;;;;;15.90;99.90;;;;;;5026535;28;19925;-74
2021/07/31 02:20:00;;;;;;;;;;;16.00;99.90;;;;;;5030431;28;20365;-74
2021/07/31 02:22:26;;;;;;;;;;;15.90;99.90;;;;;;5025488;28;19914;-74
2021/07/31 02:24:51;;;;;;;;;;;15.90;99.90;;;;;;5049563;28;21228;-74
2021/07/31 02:27:17;;;;;;;;;;;15.90;99.90;;;;;;5026709;28;19922;-73
2021/07/31 02:29:42;;;;;;;;;;;15.90;99.90;;;;;;5032040;28;19913;-75
2021/07/31 02:32:08;;;;;;;;;;;15.80;99.90;;;;;;5027278;28;19913;-75
2021/07/31 02:34:34;;;;;;;;;;;15.80;99.90;;;;;;5022535;28;19960;-74
2021/07/31 02:36:59;;;;;;;;;;;15.80;99.90;;;;;;5048535;28;20066;-74
2021/07/31 02:39:25;;;;;;;;;;;15.80;99.90;;;;;;5027251;28;20366;-73
2021/07/31 02:41:50;;;;;;;;;;;15.70;99.90;;;;;;5025543;28;19971;-73
2021/07/31 02:44:16;;;;;;;;;;;15.70;99.90;;;;;;5025035;28;20273;-73
2021/07/31 02:46:41;;;;;;;;;;;15.80;99.90;;;;;;5023507;28;19913;-74
2021/07/31 02:49:07;;;;;;;;;;;15.80;99.90;;;;;;5028295;28;20016;-75
2021/07/31 02:51:32;;;;;;;;;;;15.80;99.90;;;;;;5024253;28;19996;-74
2021/07/31 02:53:58;;;;;;;;;;;15.80;99.90;;;;;;5046842;28;19948;-74
2021/07/31 02:56:23;;;;;;;;;;;15.80;99.90;;;;;;5028085;28;19914;-74
2021/07/31 02:58:50;;;;;;;;;;;15.80;99.90;;;;;;5024857;28;20328;-74
2021/07/31 03:01:15;;;;;;;;;;;15.80;99.90;;;;;;5027019;28;20319;-73
2021/07/31 03:03:41;;;;;;;;;;;15.80;99.90;;;;;;5022262;28;20001;-74
2021/07/31 03:06:06;;;;;;;;;;;15.80;99.90;;;;;;5023618;28;19963;-75
2021/07/31 03:08:32;;;;;;;;;;;15.70;99.90;;;;;;5021800;28;19914;-76
2021/07/31 03:10:59;;;;;;;;;;;15.80;99.90;;;;;;5028732;28;20396;-75
2021/07/31 03:13:24;;;;;;;;;;;15.80;99.90;;;;;;5027073;28;20082;-74
2021/07/31 03:15:51;;;;;;;;;;;15.80;99.90;;;;;;5033387;28;20041;-73
2021/07/31 03:18:17;;;;;;;;;;;15.80;99.90;;;;;;5050429;28;20019;-73
2021/07/31 03:20:46;;;;;;;;;;;15.90;99.90;;;;;;5025594;28;20021;-74
2021/07/31 03:23:12;;;;;;;;;;;15.80;99.90;;;;;;5042120;28;19919;-74
2021/07/31 03:25:38;;;;;;;;;;;15.80;99.90;;;;;;5045638;28;19931;-74
2021/07/31 03:28:03;;;;;;;;;;;15.80;99.90;;;;;;5025692;28;20023;-76
2021/07/31 03:30:29;;;;;;;;;;;15.80;99.90;;;;;;5025931;28;19913;-75
2021/07/31 03:32:54;;;;;;;;;;;15.80;99.90;;;;;;5030056;28;19916;-74
2021/07/31 03:35:20;;;;;;;;;;;15.90;99.90;;;;;;5033630;28;20320;-74
2021/07/31 03:37:45;;;;;;;;;;;15.80;99.90;;;;;;5026134;28;19917;-75
2021/07/31 03:40:11;;;;;;;;;;;15.80;99.90;;;;;;5028871;28;19917;-75
2021/07/31 03:42:36;;;;;;;;;;;15.80;99.90;;;;;;5040758;28;19913;-74
2021/07/31 03:45:02;;;;;;;;;;;15.80;99.90;;;;;;5031043;28;19913;-75
2021/07/31 03:47:27;;;;;;;;;;;15.80;99.90;;;;;;5041330;28;19913;-75
2021/07/31 03:49:53;;;;;;;;;;;15.90;99.90;;;;;;5049687;28;19929;-75
2021/07/31 03:52:18;;;;;;;;;;;15.90;99.90;;;;;;5045470;28;19944;-77
2021/07/31 03:54:44;;;;;;;;;;;15.90;99.90;;;;;;5046239;28;19920;-76
2021/07/31 03:57:09;;;;;;;;;;;15.90;99.90;;;;;;5031260;28;19936;-76
2021/07/31 03:59:35;;;;;;;;;;;15.80;99.90;;;;;;5030553;28;19921;-76
2021/07/31 04:02:02;;;;;;;;;;;15.80;99.90;;;;;;5031098;28;19928;-76
2021/07/31 04:04:28;;;;;;;;;;;15.80;99.90;;;;;;5049085;28;19913;-75
2021/07/31 04:06:56;;;;;;;;;;;15.90;99.90;;;;;;5030912;28;19920;-76
2021/07/31 04:09:21;;;;;;;;;;;15.90;99.90;;;;;;5046413;28;19952;-76
2021/07/31 04:11:47;;;;;;;;;;;15.90;99.90;;;;;;5027131;28;20046;-76
2021/07/31 04:14:12;;;;;;;;;;;16.00;99.90;;;;;;5027174;28;19913;-75
2021/07/31 04:16:38;;;;;;;;;;;16.00;99.90;;;;;;5047357;28;19929;-75
2021/07/31 04:19:03;;;;;;;;;;;15.90;99.90;;;;;;5047902;28;19921;-76
2021/07/31 04:21:29;;;;;;;;;;;15.90;99.90;;;;;;5030208;28;20201;-76
2021/07/31 04:23:54;;;;;;;;;;;16.00;99.90;;;;;;5030806;28;19919;-77
2021/07/31 04:26:20;;;;;;;;;;;16.00;99.90;;;;;;5029249;28;19964;-76
2021/07/31 04:28:45;;;;;;;;;;;16.00;99.90;;;;;;5045392;28;19912;-75
2021/07/31 04:31:12;;;;;;;;;;;16.00;99.90;;;;;;5043977;28;19913;-75
2021/07/31 04:33:37;;;;;;;;;;;15.90;99.90;;;;;;5029209;28;19921;-75
2021/07/31 04:36:04;;;;;;;;;;;15.80;99.90;;;;;;5040872;28;19928;-75
2021/07/31 04:38:30;;;;;;;;;;;15.80;99.90;;;;;;5030615;28;19925;-77
2021/07/31 04:40:56;;;;;;;;;;;15.70;99.90;;;;;;5051676;28;19958;-75
2021/07/31 04:43:21;;;;;;;;;;;15.70;99.90;;;;;;5051773;28;20312;-75
2021/07/31 04:45:47;;;;;;;;;;;15.70;99.90;;;;;;5051965;28;19999;-75
2021/07/31 04:48:12;;;;;;;;;;;15.70;99.90;;;;;;5051725;28;19912;-75
2021/07/31 04:50:38;;;;;;;;;;;15.70;99.90;;;;;;5051897;28;19919;-75
2021/07/31 04:53:03;;;;;;;;;;;15.70;99.90;;;;;;5048541;28;19916;-75
2021/07/31 04:55:28;;;;;;;;;;;15.70;99.90;;;;;;5051812;28;20660;-75
2021/07/31 04:57:54;;;;;;;;;;;15.70;99.90;;;;;;5051696;28;19920;-76
2021/07/31 05:00:19;;;;;;;;;;;15.70;99.90;;;;;;5051881;28;20537;-77
2021/07/31 05:02:45;;;;;;;;;;;15.70;99.90;;;;;;5050991;28;19912;-77
2021/07/31 05:05:10;;;;;;;;;;;15.60;99.90;;;;;;5032743;28;19920;-77
2021/07/31 05:07:36;;;;;;;;;;;15.60;99.90;;;;;;5030845;28;19948;-77
2021/07/31 05:10:01;;;;;;;;;;;15.70;99.90;;;;;;5039371;28;19917;-76
2021/07/31 05:12:27;;;;;;;;;;;15.70;99.90;;;;;;5045393;28;19913;-77
2021/07/31 05:14:53;;;;;;;;;;;15.70;99.90;;;;;;5041900;28;19921;-76
2021/07/31 05:17:21;;;;;;;;;;;15.60;99.90;;;;;;5029367;28;19928;-76
2021/07/31 05:19:47;;;;;;;;;;;15.50;99.90;;;;;;5022459;28;19928;-76
2021/07/31 05:22:16;;;;;;;;;;;15.50;99.90;;;;;;5042170;28;19913;-76
2021/07/31 05:24:42;;;;;;;;;;;15.40;99.90;;;;;;5023204;28;19913;-77
2021/07/31 05:27:07;;;;;;;;;;;15.40;99.90;;;;;;5026935;28;19913;-76
2021/07/31 05:29:33;;;;;;;;;;;15.50;99.90;;;;;;5039804;28;20357;-77
2021/07/31 05:31:59;;;;;;;;;;;15.50;99.90;;;;;;5037000;28;21357;-76
2021/07/31 05:34:24;;;;;;;;;;;15.50;99.90;;;;;;5044168;28;20297;-76
2021/07/31 05:36:50;;;;;;;;;;;15.50;99.90;;;;;;5040480;28;19925;-75
2021/07/31 05:39:15;;;;;;;;;;;15.60;99.90;;;;;;5041964;28;19951;-77
2021/07/31 05:41:41;;;;;;;;;;;15.50;99.90;;;;;;5044160;28;20011;-76
2021/07/31 05:44:06;;;;;;;;;;;15.50;99.90;;;;;;5050922;28;20379;-76
2021/07/31 05:46:32;;;;;;;;;;;15.60;99.90;;;;;;5025833;28;19917;-75
2021/07/31 05:48:57;;;;;;;;;;;15.60;99.90;;;;;;5053402;28;19958;-76
2021/07/31 05:51:23;;;;;;;;;;;15.60;99.90;;;;;;5026289;28;20316;-76
2021/07/31 05:53:48;;;;;;;;;;;15.60;99.90;;;;;;5043820;28;19917;-75
2021/07/31 05:56:15;;;;;;;;;;;15.60;99.90;;;;;;5049513;28;19913;-76
2021/07/31 05:58:40;;;;;;;;;;;15.70;99.90;;;;;;5042299;28;19979;-76
2021/07/31 06:01:06;;;;;;;;;;;15.70;99.90;;;;;;5048441;28;19972;-76
2021/07/31 06:03:32;;;;;;;;;;;15.80;99.90;;;;;;5025593;28;19913;-76
2021/07/31 06:05:58;;;;;;;;;;;15.80;99.90;;;;;;5033633;28;20012;-75
2021/07/31 06:08:24;;;;;;;;;;;15.80;99.90;;;;;;5027434;28;19979;-76
2021/07/31 06:10:49;;;;;;;;;;;15.90;99.90;;;;;;5050585;28;20493;-75
2021/07/31 06:13:15;;;;;;;;;;;15.90;99.90;;;;;;5023274;28;19920;-76
2021/07/31 06:15:43;;;;;;;;;;;15.90;99.90;;;;;;5051548;28;19982;-76
2021/07/31 06:18:10;;;;;;;;;;;16.00;99.90;;;;;;5029735;28;19958;-75
2021/07/31 06:20:35;;;;;;;;;;;16.00;99.90;;;;;;5025171;28;19921;-75
2021/07/31 06:23:01;;;;;;;;;;;16.00;99.90;;;;;;5024231;28;19919;-76
2021/07/31 06:25:26;;;;;;;;;;;16.00;99.90;;;;;;5028932;28;20337;-76
2021/07/31 06:27:55;;;;;;;;;;;16.00;99.90;;;;;;5037813;28;19917;-75
2021/07/31 06:30:21;;;;;;;;;;;16.00;99.90;;;;;;5024211;28;19924;-76
2021/07/31 06:32:49;;;;;;;;;;;16.00;99.90;;;;;;5028719;28;19913;-76
2021/07/31 06:35:15;;;;;;;;;;;16.00;99.90;;;;;;5042580;28;19955;-76
2021/07/31 06:37:41;;;;;;;;;;;16.00;99.90;;;;;;5025438;28;19955;-75
2021/07/31 06:40:07;;;;;;;;;;;16.00;99.90;;;;;;5052694;28;19923;-77
2021/07/31 06:42:32;;;;;;;;;;;16.00;99.90;;;;;;5036852;28;19921;-76
2021/07/31 06:44:58;;;;;;;;;;;16.00;99.90;;;;;;5038582;28;19919;-75
2021/07/31 06:47:23;;;;;;;;;;;16.00;99.90;;;;;;5059903;28;19917;-76
2021/07/31 06:49:49;;;;;;;;;;;16.10;99.90;;;;;;5057386;28;20169;-75
2021/07/31 06:52:15;;;;;;;;;;;16.10;99.90;;;;;;5059884;28;19920;-78
2021/07/31 06:54:40;;;;;;;;;;;16.20;99.90;;;;;;5042970;28;19905;-76
2021/07/31 06:57:09;;;;;;;;;;;16.30;99.90;;;;;;5035907;28;19924;-77
2021/07/31 06:59:35;;;;;;;;;;;16.30;99.90;;;;;;5049876;28;20007;-78
2021/07/31 07:02:00;;;;;;;;;;;16.30;99.90;;;;;;5049424;28;19920;-77
2021/07/31 07:04:26;;;;;;;;;;;16.40;99.90;;;;;;5051548;28;19913;-77
2021/07/31 07:06:51;;;;;;;;;;;16.40;99.90;;;;;;5048258;28;20440;-78
2021/07/31 07:09:17;;;;;;;;;;;16.40;99.90;;;;;;5052827;28;19912;-76
2021/07/31 07:11:43;;;;;;;;;;;16.30;99.90;;;;;;5055738;28;19913;-78
2021/07/31 07:14:09;;;;;;;;;;;16.30;99.90;;;;;;5038462;28;20361;-76
2021/07/31 07:16:34;;;;;;;;;;;16.40;99.90;;;;;;5058178;28;19925;-77
2021/07/31 07:19:00;;;;;;;;;;;16.30;99.90;;;;;;5057629;28;19974;-77
2021/07/31 07:21:25;;;;;;;;;;;16.40;99.90;;;;;;5055686;28;20000;-76
2021/07/31 07:23:51;;;;;;;;;;;16.60;99.90;;;;;;5055608;28;19920;-77
2021/07/31 07:26:16;;;;;;;;;;;16.70;99.90;;;;;;5053654;28;19913;-76
2021/07/31 07:28:42;;;;;;;;;;;16.80;99.90;;;;;;5052189;28;20253;-76
2021/07/31 07:31:11;;;;;;;;;;;16.90;99.90;;;;;;5035964;28;19917;-77
2021/07/31 07:33:37;;;;;;;;;;;16.90;99.90;;;;;;5029819;28;20245;-77
2021/07/31 07:36:09;;;;;;;;;;;16.90;99.90;;;;;;5036016;28;19913;-75
2021/07/31 07:38:34;;;;;;;;;;;16.90;99.90;;;;;;5043879;28;19917;-78
2021/07/31 07:41:00;;;;;;;;;;;16.90;99.90;;;;;;5021674;28;19916;-77
2021/07/31 07:43:25;;;;;;;;;;;16.80;99.90;;;;;;5051212;28;20331;-75
2021/07/31 07:45:51;;;;;;;;;;;16.80;99.90;;;;;;5052564;28;19913;-76
2021/07/31 07:48:17;;;;;;;;;;;16.80;99.90;;;;;;5053443;28;19916;-75
2021/07/31 07:50:42;;;;;;;;;;;16.80;99.90;;;;;;5050080;28;19921;-77
2021/07/31 07:53:08;;;;;;;;;;;16.90;99.90;;;;;;5028640;28;19917;-76
2021/07/31 07:55:34;;;;;;;;;;;17.00;99.90;;;;;;5037304;28;19920;-76
2021/07/31 07:57:59;;;;;;;;;;;17.20;99.90;;;;;;5032362;28;19917;-76
2021/07/31 08:00:24;;;;;;;;;;;17.40;99.90;;;;;;5029365;28;19959;-75
2021/07/31 08:02:50;;;;;;;;;;;17.50;99.90;;;;;;5028477;28;20328;-75
2021/07/31 08:05:16;;;;;;;;;;;17.50;99.90;;;;;;5032188;28;19920;-76
2021/07/31 08:07:43;;;;;;;;;;;17.50;99.90;;;;;;5049387;28;20385;-77
2021/07/31 08:10:10;;;;;;;;;;;17.50;99.90;;;;;;5023152;28;20022;-76
2021/07/31 08:12:35;;;;;;;;;;;17.40;99.90;;;;;;5045760;28;20002;-77
2021/07/31 08:15:01;;;;;;;;;;;17.30;99.90;;;;;;5047327;28;19913;-76
2021/07/31 08:17:26;;;;;;;;;;;17.10;99.90;;;;;;5030190;28;20361;-74
2021/07/31 08:19:52;;;;;;;;;;;17.10;99.90;;;;;;5049072;28;20007;-76
2021/07/31 08:22:17;;;;;;;;;;;17.00;99.90;;;;;;5038637;28;19919;-74
2021/07/31 08:24:43;;;;;;;;;;;17.00;99.90;;;;;;5049974;28;19912;-76
2021/07/31 08:27:08;;;;;;;;;;;17.00;99.90;;;;;;5027421;28;19944;-74
2021/07/31 08:29:34;;;;;;;;;;;17.00;99.90;;;;;;5027274;28;19913;-74
2021/07/31 08:32:00;;;;;;;;;;;17.00;99.90;;;;;;5047719;28;19923;-75
2021/07/31 08:34:25;;;;;;;;;;;17.10;99.90;;;;;;5029388;28;20010;-78
2021/07/31 08:36:51;;;;;;;;;;;17.20;99.90;;;;;;5051147;28;19925;-82
2021/07/31 08:39:16;;;;;;;;;;;17.20;99.90;;;;;;5029925;28;19944;-78
2021/07/31 08:41:44;;;;;;;;;;;17.30;99.90;;;;;;5046900;28;19912;-81
2021/07/31 08:44:10;;;;;;;;;;;17.30;99.90;;;;;;5048581;28;20306;-80
2021/07/31 08:46:36;;;;;;;;;;;17.30;99.90;;;;;;5028784;28;19916;-81
2021/07/31 08:49:02;;;;;;;;;;;17.30;99.90;;;;;;5049948;28;20396;-81
2021/07/31 08:51:29;;;;;;;;;;;17.20;99.90;;;;;;5046344;28;19913;-81
2021/07/31 08:53:55;;;;;;;;;;;17.10;99.90;;;;;;5045128;28;19919;-82
2021/07/31 08:56:20;;;;;;;;;;;16.90;99.90;;;;;;5028855;28;19921;-82
2021/07/31 08:58:46;;;;;;;;;;;16.70;99.90;;;;;;5029700;28;19982;-80
2021/07/31 09:01:11;;;;;;;;;;;16.60;99.90;;;;;;5054181;28;19913;-82
2021/07/31 09:03:47;;;;;;;;;;;16.50;99.90;;;;;;5035941;28;20364;-81
2021/07/31 09:06:29;;;;;;;;;;;16.40;99.90;;;;;;5037217;28;19913;-81
2021/07/31 09:08:54;;;;;;;;;;;16.40;99.90;;;;;;5030129;28;19921;-81
2021/07/31 09:11:20;;;;;;;;;;;16.40;99.90;;;;;;5026704;28;19917;-77
2021/07/31 09:13:46;;;;;;;;;;;16.50;99.90;;;;;;5033322;28;19920;-79
2021/07/31 09:16:11;;;;;;;;;;;16.50;99.90;;;;;;5052505;28;19917;-77
2021/07/31 09:18:43;;;;;;;;;;;16.50;99.90;;;;;;5043933;28;20019;-76
2021/07/31 09:21:11;;;;;;;;;;;16.80;99.90;;;;;;5031286;28;19917;-78
2021/07/31 09:23:43;;;;;;;;;;;17.20;99.90;;;;;;5041132;28;19913;-76
2021/07/31 09:26:09;;;;;;;;;;;17.30;99.90;;;;;;5053069;28;19917;-77
2021/07/31 09:28:40;;;;;;;;;;;17.40;99.90;;;;;;5054248;28;19920;-78
2021/07/31 09:31:13;;;;;;;;;;;17.40;99.90;;;;;;5053029;28;19913;-79
2021/07/31 09:33:46;;;;;;;;;;;17.30;99.90;;;;;;5038808;28;19913;-80
2021/07/31 09:36:11;;;;;;;;;;;17.20;99.90;;;;;;5054171;28;19913;-79
2021/07/31 09:38:38;;;;;;;;;;;17.30;99.90;;;;;;5036583;28;20027;-77
2021/07/31 09:41:24;;;;;;;;;;;17.40;99.90;;;;;;5054569;28;19967;-79
2021/07/31 09:43:59;;;;;;;;;;;17.70;99.90;;;;;;5046758;28;19913;-79
2021/07/31 09:46:32;;;;;;;;;;;18.20;99.90;;;;;;5054509;28;19912;-80
2021/07/31 09:48:58;;;;;;;;;;;18.50;99.90;;;;;;5037507;28;20392;-80
2021/07/31 09:51:44;;;;;;;;;;;18.70;99.90;;;;;;5036208;28;19913;-79
2021/07/31 09:54:10;;;;;;;;;;;18.70;99.90;;;;;;5024647;28;19921;-80
2021/07/31 09:56:44;;;;;;;;;;;18.70;99.90;;;;;;5056635;28;19958;-79
2021/07/31 09:59:10;;;;;;;;;;;18.60;99.90;;;;;;5048476;28;20050;-81
2021/07/31 10:01:37;;;;;;;;;;;18.50;99.90;;;;;;5037955;28;20007;-77
2021/07/31 10:04:02;;;;;;;;;;;18.50;99.90;;;;;;5036222;28;20284;-78
2021/07/31 10:06:30;;;;;;;;;;;18.80;99.90;;;;;;5052347;28;19921;-78
2021/07/31 10:08:55;;;;;;;;;;;18.90;99.90;;;;;;5073928;28;19967;-77
2021/07/31 10:11:21;;;;;;;;;;;18.70;99.90;;;;;;5073236;28;19980;-77
2021/07/31 10:13:47;;;;;;;;;;;18.60;99.90;;;;;;5057574;28;19920;-77
2021/07/31 10:16:12;;;;;;;;;;;18.80;99.90;;;;;;5060415;28;19901;-76
2021/07/31 10:18:38;;;;;;;;;;;18.90;99.90;;;;;;5075763;28;19929;-76
2021/07/31 10:21:05;;;;;;;;;;;19.00;99.90;;;;;;5071138;28;19916;-77
2021/07/31 10:23:54;;;;;;;;;;;19.10;99.90;;;;;;5079652;28;19901;-77
2021/07/31 10:26:20;;;;;;;;;;;19.00;99.90;;;;;;5079928;28;19963;-76
2021/07/31 10:28:45;;;;;;;;;;;18.90;99.90;;;;;;5070625;28;19912;-76
2021/07/31 10:31:41;;;;;;;;;;;18.70;99.90;;;;;;5043318;28;19920;-78
2021/07/31 10:34:06;;;;;;;;;;;18.70;99.90;;;;;;5022331;28;19966;-76
2021/07/31 10:36:33;;;;;;;;;;;18.80;99.90;;;;;;5060894;28;20003;-78
2021/07/31 10:38:59;;;;;;;;;;;18.80;99.90;;;;;;5041130;28;19935;-79
2021/07/31 10:41:44;;;;;;;;;;;18.80;99.90;;;;;;5040975;28;19919;-77
2021/07/31 10:44:10;;;;;;;;;;;18.80;99.90;;;;;;5057010;28;20395;-77
2021/07/31 10:46:35;;;;;;;;;;;18.70;99.90;;;;;;5058544;28;20011;-77
2021/07/31 10:49:20;;;;;;;;;;;18.70;99.90;;;;;;5040150;28;20006;-77
2021/07/31 10:51:45;;;;;;;;;;;18.70;99.90;;;;;;5057510;28;20442;-77
2021/07/31 10:54:11;;;;;;;;;;;18.80;99.90;;;;;;5038642;28;19912;-77
2021/07/31 10:56:55;;;;;;;;;;;18.90;99.90;;;;;;5039630;28;19912;-76
2021/07/31 10:59:21;;;;;;;;;;;19.00;99.90;;;;;;5057520;28;19923;-77
2021/07/31 11:01:47;;;;;;;;;;;19.20;99.90;;;;;;5057876;28;20003;-77
2021/07/31 11:04:31;;;;;;;;;;;19.20;99.90;;;;;;5056265;28;19913;-77
2021/07/31 11:07:10;;;;;;;;;;;19.40;99.90;;;;;;5042915;28;19912;-75
2021/07/31 11:09:35;;;;;;;;;;;19.40;99.90;;;;;;5034000;28;19913;-76
2021/07/31 11:12:24;;;;;;;;;;;19.20;99.90;;;;;;5037578;28;19979;-75
2021/07/31 11:15:06;;;;;;;;;;;19.00;99.90;;;;;;5046558;28;20497;-76
2021/07/31 11:17:31;;;;;;;;;;;18.80;99.90;;;;;;5034778;28;19916;-75
2021/07/31 11:19:57;;;;;;;;;;;18.60;99.90;;;;;;5054743;28;19920;-75
2021/07/31 11:22:25;;;;;;;;;;;18.40;99.90;;;;;;5030640;28;19959;-76
2021/07/31 11:24:51;;;;;;;;;;;18.40;99.90;;;;;;5032969;28;19912;-75
2021/07/31 11:27:17;;;;;;;;;;;18.20;99.90;;;;;;5053082;28;19912;-76
2021/07/31 11:29:51;;;;;;;;;;;18.10;99.90;;;;;;5036109;28;20012;-76
2021/07/31 11:32:16;;;;;;;;;;;17.90;99.90;;;;;;5053171;28;20003;-76
2021/07/31 11:34:44;;;;;;;;;;;17.60;99.90;;;;;;5052651;28;20009;-77
2021/07/31 11:37:11;;;;;;;;;;;17.40;99.90;;;;;;5036300;28;19924;-77
2021/07/31 11:39:37;;;;;;;;;;;17.20;99.90;;;;;;5050004;28;19920;-77
2021/07/31 11:42:03;;;;;;;;;;;17.20;99.90;;;;;;5054679;28;19956;-76
2021/07/31 11:44:30;;;;;;;;;;;17.10;99.90;;;;;;5054605;28;19921;-77
2021/07/31 11:46:56;;;;;;;;;;;17.30;99.90;;;;;;5055036;28;19974;-76
2021/07/31 11:49:26;;;;;;;;;;;17.60;99.90;;;;;;5024704;28;19920;-76
2021/07/31 11:51:55;;;;;;;;;;;17.90;99.90;;;;;;5034728;28;20394;-76
2021/07/31 11:54:21;;;;;;;;;;;18.00;99.90;;;;;;5053997;28;20004;-77
2021/07/31 11:56:47;;;;;;;;;;;17.80;99.90;;;;;;5037168;28;19960;-75
2021/07/31 11:59:13;;;;;;;;;;;17.70;99.90;;;;;;5055634;28;19916;-76
2021/07/31 12:01:45;;;;;;;;;;;17.80;99.90;;;;;;5035149;28;19959;-76
2021/07/31 12:04:11;;;;;;;;;;;17.90;99.90;;;;;;5049326;28;20432;-77
2021/07/31 12:06:40;;;;;;;;;;;18.20;99.90;;;;;;5030957;28;19999;-77
2021/07/31 12:09:14;;;;;;;;;;;18.50;99.90;;;;;;5048483;28;19921;-76
2021/07/31 12:11:40;;;;;;;;;;;18.60;99.90;;;;;;5050088;28;20262;-76
2021/07/31 12:14:24;;;;;;;;;;;18.80;99.90;;;;;;5035680;28;19912;-76
2021/07/31 12:16:50;;;;;;;;;;;18.90;99.90;;;;;;5053510;28;19931;-76
2021/07/31 12:19:15;;;;;;;;;;;19.20;99.90;;;;;;5023399;28;19917;-76
2021/07/31 12:21:41;;;;;;;;;;;19.60;99.90;;;;;;5034531;28;19912;-76
2021/07/31 12:24:15;;;;;;;;;;;19.80;99.90;;;;;;5054696;28;19920;-74
2021/07/31 12:26:50;;;;;;;;;;;20.00;99.90;;;;;;5032560;28;20284;-74
2021/07/31 12:29:35;;;;;;;;;;;20.40;99.90;;;;;;5030246;28;19913;-75
2021/07/31 12:32:19;;;;;;;;;;;20.60;99.90;;;;;;5033364;28;19913;-75
2021/07/31 12:34:45;;;;;;;;;;;20.80;99.90;;;;;;5027964;28;19920;-75
2021/07/31 12:39:54;;;;;;;;;;;20.20;99.90;;;;;;5051457;28;19958;-76
2021/07/31 12:42:21;;;;;;;;;;;19.70;99.90;;;;;;5053470;28;19912;-75
2021/07/31 12:44:46;;;;;;;;;;;19.60;99.90;;;;;;5044954;28;20921;-74
2021/07/31 12:47:12;;;;;;;;;;;19.40;99.90;;;;;;5029190;28;19948;-74
2021/07/31 12:49:37;;;;;;;;;;;19.30;99.90;;;;;;5026570;28;19999;-75
2021/07/31 12:52:04;;;;;;;;;;;19.20;99.90;;;;;;5049062;28;19913;-74
2021/07/31 12:54:29;;;;;;;;;;;19.10;99.90;;;;;;5042183;28;19917;-74
2021/07/31 12:56:55;;;;;;;;;;;19.20;99.90;;;;;;5046080;28;20262;-75
2021/07/31 12:59:20;;;;;;;;;;;19.40;99.90;;;;;;5022042;28;19995;-74
2021/07/31 13:01:46;;;;;;;;;;;19.70;99.90;;;;;;5048474;28;19920;-74
2021/07/31 13:04:11;;;;;;;;;;;19.90;99.90;;;;;;5020405;28;20280;-74
2021/07/31 13:06:37;;;;;;;;;;;20.00;99.90;;;;;;5027972;28;19936;-76
2021/07/31 13:09:02;;;;;;;;;;;19.80;99.90;;;;;;5048123;28;20422;-74
2021/07/31 13:11:28;;;;;;;;;;;19.70;99.90;;;;;;5027332;28;19913;-74
2021/07/31 13:13:53;;;;;;;;;;;19.50;99.90;;;;;;5047877;28;19913;-75
2021/07/31 13:16:19;;;;;;;;;;;19.50;99.90;;;;;;5034075;28;19924;-74
2021/07/31 13:18:44;;;;;;;;;;;19.40;99.90;;;;;;5052728;28;19916;-75
2021/07/31 13:21:10;;;;;;;;;;;19.50;99.90;;;;;;5034539;28;20438;-75
2021/07/31 13:23:37;;;;;;;;;;;19.60;99.90;;;;;;5051276;28;19948;-75
2021/07/31 13:26:03;;;;;;;;;;;19.50;99.90;;;;;;5033882;28;19912;-75
2021/07/31 13:28:29;;;;;;;;;;;19.50;99.90;;;;;;5050349;28;19966;-75
2021/07/31 13:30:54;;;;;;;;;;;19.20;99.90;;;;;;5052262;28;19924;-76
2021/07/31 13:33:20;;;;;;;;;;;18.90;99.90;;;;;;5035675;28;19921;-76
2021/07/31 13:35:46;;;;;;;;;;;18.60;99.90;;;;;;5052035;28;20323;-76
2021/07/31 13:38:16;;;;;;;;;;;18.30;99.90;;;;;;5033266;28;19967;-76
2021/07/31 13:40:52;;;;;;;;;;;18.20;99.90;;;;;;5053050;28;19912;-76
2021/07/31 13:43:19;;;;;;;;;;;18.30;99.90;;;;;;5035482;28;19912;-76
2021/07/31 13:45:44;;;;;;;;;;;18.40;99.90;;;;;;5052833;28;20016;-76
2021/07/31 13:48:10;;;;;;;;;;;18.20;99.90;;;;;;5045127;28;19992;-77
2021/07/31 13:50:35;;;;;;;;;;;18.00;99.90;;;;;;5035253;28;20479;-75
2021/07/31 13:53:01;;;;;;;;;;;17.90;99.90;;;;;;5056600;28;20269;-76
2021/07/31 13:55:26;;;;;;;;;;;17.70;99.90;;;;;;5051810;28;19913;-76
2021/07/31 13:57:52;;;;;;;;;;;17.60;99.90;;;;;;5057143;28;19924;-76
2021/07/31 14:00:18;;;;;;;;;;;17.60;99.90;;;;;;5056091;28;19919;-75
2021/07/31 14:02:44;;;;;;;;;;;17.50;99.90;;;;;;5038579;28;19919;-76
2021/07/31 14:05:12;;;;;;;;;;;17.50;99.90;;;;;;5038190;28;19916;-75
2021/07/31 14:07:37;;;;;;;;;;;17.50;99.90;;;;;;5037126;28;20361;-76
2021/07/31 14:10:03;;;;;;;;;;;17.50;99.90;;;;;;5054992;28;19913;-76
2021/07/31 14:12:29;;;;;;;;;;;17.40;99.90;;;;;;5055607;28;19912;-76
2021/07/31 14:14:54;;;;;;;;;;;17.40;99.90;;;;;;5036345;28;20360;-77
2021/07/31 14:17:20;;;;;;;;;;;17.40;99.90;;;;;;5058753;28;19921;-76